createdAt,value
2023-04-15T00:01:21.052Z,3.70
2023-04-15T00:03:21.173Z,3.70
2023-04-15T00:05:21.001Z,3.70
2023-04-15T00:07:23.537Z,3.70
2023-04-15T00:09:21.024Z,3.70
2023-04-15T00:11:20.986Z,3.50
2023-04-15T00:13:20.997Z,3.50
2023-04-15T00:15:21.101Z,3.40
2023-04-15T00:17:21.103Z,3.40
2023-04-15T00:19:21.226Z,3.30
2023-04-15T00:21:21.087Z,3.30
2023-04-15T00:23:20.984Z,3.10
2023-04-15T00:25:21.051Z,3.10
2023-04-15T00:27:20.984Z,3.10
2023-04-15T00:29:21.056Z,3.00
2023-04-15T00:31:21.630Z,2.90
2023-04-15T00:33:21.031Z,3.00
2023-04-15T00:35:21.020Z,3.00
2023-04-15T00:37:21.067Z,3.10
2023-04-15T00:39:21.034Z,3.10
2023-04-15T00:41:21.018Z,3.20
2023-04-15T00:43:21.044Z,3.20
2023-04-15T00:45:21.085Z,3.20
2023-04-15T00:47:21.067Z,3.30
2023-04-15T00:49:21.042Z,3.30
2023-04-15T00:51:21.097Z,3.50
2023-04-15T00:53:20.997Z,3.50
2023-04-15T00:55:21.036Z,3.50
2023-04-15T00:57:21.039Z,3.50
2023-04-15T00:59:21.033Z,3.50
2023-04-15T01:01:21.093Z,3.50
2023-04-15T01:03:21.275Z,3.40
2023-04-15T01:05:21.046Z,3.40
2023-04-15T01:07:21.056Z,3.40
2023-04-15T01:09:21.501Z,3.30
2023-04-15T01:11:27.083Z,3.30
2023-04-15T01:13:21.091Z,3.30
2023-04-15T01:15:21.087Z,3.20
2023-04-15T01:17:21.078Z,3.10
2023-04-15T01:19:21.146Z,3.10
2023-04-15T01:21:21.153Z,3.00
2023-04-15T01:23:21.246Z,3.00
2023-04-15T01:25:21.248Z,2.90
2023-04-15T01:27:21.049Z,2.90
2023-04-15T01:29:21.289Z,2.90
2023-04-15T01:31:21.101Z,2.90
2023-04-15T01:33:25.983Z,2.90
2023-04-15T01:35:21.176Z,2.80
2023-04-15T01:37:21.185Z,2.80
2023-04-15T01:39:21.072Z,2.80
2023-04-15T01:41:21.131Z,2.80
2023-04-15T01:43:21.194Z,2.70
2023-04-15T01:45:21.308Z,2.70
2023-04-15T01:47:21.139Z,2.70
2023-04-15T01:51:24.149Z,2.60
2023-04-15T01:53:21.125Z,2.60
2023-04-15T01:57:26.346Z,2.50
2023-04-15T01:59:21.076Z,2.40
2023-04-15T02:01:21.245Z,2.40
2023-04-15T02:03:21.265Z,2.30
2023-04-15T02:05:35.254Z,2.40
2023-04-15T02:07:35.184Z,2.40
2023-04-15T02:09:35.247Z,2.40
2023-04-15T02:11:36.540Z,2.30
2023-04-15T02:13:35.930Z,2.30
2023-04-15T02:15:35.192Z,2.30
2023-04-15T02:17:35.433Z,2.30
2023-04-15T02:19:35.205Z,2.40
2023-04-15T02:21:35.218Z,2.40
2023-04-15T02:23:35.213Z,2.40
2023-04-15T02:25:37.771Z,2.50
2023-04-15T02:27:35.173Z,2.50
2023-04-15T02:29:37.845Z,2.50
2023-04-15T02:31:35.371Z,2.50
2023-04-15T02:33:35.247Z,2.50
2023-04-15T02:35:35.191Z,2.50
2023-04-15T02:37:35.341Z,2.50
2023-04-15T02:39:35.249Z,2.50
2023-04-15T02:41:35.195Z,2.50
2023-04-15T02:43:35.326Z,2.50
2023-04-15T02:45:35.263Z,2.50
2023-04-15T02:47:40.133Z,2.50
2023-04-15T02:49:35.405Z,2.50
2023-04-15T02:51:35.221Z,2.50
2023-04-15T02:53:35.309Z,2.60
2023-04-15T02:55:35.283Z,2.60
2023-04-15T02:57:35.205Z,2.60
2023-04-15T02:59:35.257Z,2.70
2023-04-15T03:01:35.298Z,2.70
2023-04-15T03:03:40.222Z,2.70
2023-04-15T03:05:35.274Z,2.70
2023-04-15T03:07:35.177Z,2.90
2023-04-15T03:09:35.203Z,2.90
2023-04-15T03:11:36.410Z,2.90
2023-04-15T03:13:35.214Z,3.10
2023-04-15T03:15:35.347Z,3.10
2023-04-15T03:17:35.220Z,3.20
2023-04-15T03:19:35.236Z,3.20
2023-04-15T03:21:35.236Z,3.20
2023-04-15T03:23:35.205Z,3.30
2023-04-15T03:25:40.153Z,3.30
2023-04-15T03:27:35.325Z,3.30
2023-04-15T03:29:35.259Z,3.30
2023-04-15T03:31:35.336Z,3.30
2023-04-15T03:33:36.449Z,3.30
2023-04-15T03:35:35.297Z,3.30
2023-04-15T03:37:35.277Z,3.30
2023-04-15T03:39:35.360Z,3.30
2023-04-15T03:41:35.252Z,3.30
2023-04-15T03:43:35.347Z,3.30
2023-04-15T03:45:35.231Z,3.20
2023-04-15T03:47:35.223Z,3.20
2023-04-15T03:49:35.216Z,3.20
2023-04-15T03:51:35.303Z,3.20
2023-04-15T03:53:35.265Z,3.20
2023-04-15T03:55:35.281Z,3.20
2023-04-15T03:57:40.124Z,3.20
2023-04-15T03:59:35.386Z,3.10
2023-04-15T04:01:35.342Z,3.10
2023-04-15T04:03:36.016Z,3.10
2023-04-15T04:05:35.245Z,3.10
2023-04-15T04:08:35.548Z,3.00
2023-04-15T04:10:35.554Z,3.00
2023-04-15T04:12:35.225Z,3.00
2023-04-15T04:14:35.288Z,2.90
2023-04-15T04:16:35.328Z,2.90
2023-04-15T04:18:35.437Z,2.80
2023-04-15T04:20:35.324Z,2.80
2023-04-15T04:22:35.250Z,2.70
2023-04-15T04:24:35.306Z,2.70
2023-04-15T04:26:35.291Z,2.80
2023-04-15T04:28:35.328Z,2.80
2023-04-15T04:30:36.340Z,2.80
2023-04-15T04:32:35.343Z,2.80
2023-04-15T04:34:35.287Z,2.70
2023-04-15T04:36:35.363Z,2.70
2023-04-15T04:38:35.246Z,2.70
2023-04-15T04:40:35.288Z,2.70
2023-04-15T04:42:36.850Z,2.70
2023-04-15T04:44:35.235Z,2.60
2023-04-15T04:46:35.404Z,2.70
2023-04-15T04:48:35.274Z,2.70
2023-04-15T04:50:35.232Z,2.60
2023-04-15T04:52:36.192Z,2.60
2023-04-15T04:54:35.292Z,2.60
2023-04-15T04:56:38.739Z,2.60
2023-04-15T04:58:35.279Z,2.60
2023-04-15T05:00:35.460Z,2.60
2023-04-15T05:02:38.990Z,2.70
2023-04-15T05:04:40.690Z,2.70
2023-04-15T05:06:35.281Z,2.70
2023-04-15T05:08:35.291Z,2.70
2023-04-15T05:10:35.309Z,2.70
2023-04-15T05:12:36.632Z,2.80
2023-04-15T05:14:35.325Z,2.80
2023-04-15T05:16:35.375Z,2.80
2023-04-15T05:18:35.282Z,2.90
2023-04-15T05:20:35.464Z,3.00
2023-04-15T05:22:35.371Z,3.20
2023-04-15T05:24:35.326Z,3.30
2023-04-15T05:26:35.302Z,3.30
2023-04-15T05:28:35.294Z,3.40
2023-04-15T05:30:35.526Z,3.50
2023-04-15T05:32:35.447Z,3.50
2023-04-15T05:34:35.378Z,3.60
2023-04-15T05:36:35.373Z,3.60
2023-04-15T05:38:37.946Z,3.60
2023-04-15T05:40:38.454Z,3.70
2023-04-15T05:42:35.369Z,3.70
2023-04-15T05:44:35.343Z,3.70
2023-04-15T05:46:35.433Z,3.70
2023-04-15T05:48:35.304Z,3.70
2023-04-15T05:50:38.444Z,3.80
2023-04-15T05:52:35.284Z,3.80
2023-04-15T05:54:40.244Z,3.80
2023-04-15T05:56:35.415Z,3.80
2023-04-15T05:58:35.344Z,3.80
2023-04-15T06:00:35.347Z,3.90
2023-04-15T06:02:35.504Z,3.80
2023-04-15T06:04:35.408Z,3.80
2023-04-15T06:06:35.337Z,3.70
2023-04-15T06:08:35.469Z,3.70
2023-04-15T06:10:35.398Z,3.70
2023-04-15T06:12:35.288Z,3.70
2023-04-15T06:14:35.277Z,3.70
2023-04-15T06:16:37.761Z,3.80
2023-04-15T06:18:35.310Z,3.80
2023-04-15T06:20:35.467Z,3.80
2023-04-15T06:22:35.281Z,3.80
2023-04-15T06:24:35.391Z,3.90
2023-04-15T06:26:38.724Z,3.90
2023-04-15T06:28:38.107Z,3.90
2023-04-15T06:30:35.487Z,4.00
2023-04-15T06:32:36.510Z,4.00
2023-04-15T06:34:35.338Z,3.90
2023-04-15T06:36:35.350Z,4.00
2023-04-15T06:38:39.404Z,4.00
2023-04-15T06:40:35.285Z,4.00
2023-04-15T06:42:35.297Z,4.10
2023-04-15T06:44:35.525Z,4.20
2023-04-15T06:46:40.265Z,4.20
2023-04-15T06:48:35.341Z,4.10
2023-04-15T06:50:35.482Z,4.10
2023-04-15T06:52:35.302Z,4.30
2023-04-15T06:54:35.316Z,4.30
2023-04-15T06:56:35.371Z,4.40
2023-04-15T06:58:37.982Z,4.50
2023-04-15T07:00:35.369Z,4.50
2023-04-15T07:02:39.335Z,4.60
2023-04-15T07:04:35.368Z,4.70
2023-04-15T07:06:35.323Z,4.70
2023-04-15T07:08:35.411Z,4.80
2023-04-15T07:10:35.715Z,4.80
2023-04-15T07:12:35.400Z,4.90
2023-04-15T07:14:40.231Z,4.90
2023-04-15T07:16:35.380Z,4.90
2023-04-15T07:18:35.513Z,4.90
2023-04-15T07:20:35.374Z,5.10
2023-04-15T07:22:35.317Z,5.10
2023-04-15T07:24:35.337Z,5.20
2023-04-15T07:26:38.407Z,5.30
2023-04-15T07:28:35.468Z,5.30
2023-04-15T07:30:35.575Z,5.40
2023-04-15T07:32:35.382Z,5.50
2023-04-15T07:34:35.357Z,5.50
2023-04-15T07:36:35.426Z,5.60
2023-04-15T07:38:35.494Z,5.60
2023-04-15T07:40:40.401Z,5.70
2023-04-15T07:42:35.341Z,5.80
2023-04-15T07:44:35.429Z,6.00
2023-04-15T07:47:35.448Z,6.10
2023-04-15T07:49:35.566Z,6.30
2023-04-15T07:51:35.511Z,6.30
2023-04-15T07:53:35.434Z,6.50
2023-04-15T07:55:35.449Z,6.60
2023-04-15T07:57:35.405Z,6.80
2023-04-15T08:56:17.526Z,8.30
2023-04-15T08:58:17.211Z,8.30
2023-04-15T09:00:17.430Z,8.70
2023-04-15T09:02:17.633Z,8.80
2023-04-15T09:04:17.290Z,8.90
2023-04-15T09:06:17.253Z,9.00
2023-04-15T09:08:22.120Z,9.00
2023-04-15T09:10:23.057Z,9.30
2023-04-15T09:12:17.524Z,9.40
2023-04-15T09:14:17.181Z,9.60
2023-04-15T09:16:17.420Z,9.60
2023-04-15T09:18:17.375Z,9.60
2023-04-15T09:20:17.339Z,9.80
2023-04-15T09:22:17.249Z,10.00
2023-04-15T09:24:18.565Z,10.20
2023-04-15T09:26:20.232Z,10.20
2023-04-15T09:28:18.308Z,10.30
2023-04-15T09:30:17.476Z,10.20
2023-04-15T09:32:17.446Z,10.50
2023-04-15T09:34:17.188Z,10.30
2023-04-15T09:36:17.379Z,10.30
2023-04-15T09:38:22.104Z,10.30
2023-04-15T09:40:23.016Z,10.30
2023-04-15T09:42:17.466Z,10.20
2023-04-15T09:44:17.766Z,10.20
2023-04-15T09:46:17.421Z,10.30
2023-04-15T09:48:19.243Z,10.30
2023-04-15T09:50:17.470Z,10.40
2023-04-15T09:52:17.145Z,10.40
2023-04-15T09:54:17.178Z,10.40
2023-04-15T09:56:17.108Z,10.20
2023-04-15T09:58:17.126Z,10.20
2023-04-15T10:00:17.220Z,10.10
2023-04-15T10:02:17.290Z,9.80
2023-04-15T10:04:17.329Z,9.80
2023-04-15T10:06:17.196Z,9.80
2023-04-15T10:08:17.161Z,10.00
2023-04-15T10:10:17.270Z,10.10
2023-04-15T10:12:17.183Z,10.10
2023-04-15T10:14:17.304Z,10.10
2023-04-15T10:16:17.206Z,10.10
2023-04-15T10:18:17.161Z,10.10
2023-04-15T10:20:17.282Z,10.30
2023-04-15T10:22:17.206Z,10.30
2023-04-15T10:24:17.172Z,10.40
2023-04-15T10:26:17.191Z,10.40
2023-04-15T10:28:17.263Z,10.40
2023-04-15T10:30:19.182Z,10.60
2023-04-15T10:32:19.579Z,10.60
2023-04-15T10:34:17.226Z,10.50
2023-04-15T10:36:17.182Z,10.40
2023-04-15T10:38:17.200Z,10.50
2023-04-15T10:40:17.203Z,10.60
2023-04-15T10:42:17.298Z,10.60
2023-04-15T10:44:17.191Z,10.40
2023-04-15T10:46:17.588Z,10.50
2023-04-15T10:48:17.625Z,10.60
2023-04-15T10:50:17.186Z,10.60
2023-04-15T10:52:17.135Z,10.60
2023-04-15T10:54:17.277Z,10.50
2023-04-15T10:56:17.439Z,10.60
2023-04-15T10:58:17.503Z,10.60
2023-04-15T11:00:18.329Z,10.60
2023-04-15T11:02:17.432Z,10.20
2023-04-15T11:05:17.229Z,10.10
2023-04-15T11:07:17.609Z,10.10
2023-04-15T11:08:46.018Z,10.30
2023-04-15T11:10:41.132Z,10.40
2023-04-15T11:12:41.078Z,10.40
2023-04-15T11:14:41.082Z,10.50
2023-04-15T11:16:41.225Z,10.60
2023-04-15T11:18:41.079Z,10.50
2023-04-15T11:20:41.239Z,10.20
2023-04-15T11:22:41.014Z,10.20
2023-04-15T11:24:41.015Z,10.20
2023-04-15T11:26:41.050Z,10.20
2023-04-15T11:28:41.029Z,10.30
2023-04-15T11:30:41.467Z,10.40
2023-04-15T11:32:48.341Z,10.40
2023-04-15T11:34:41.038Z,10.30
2023-04-15T11:36:41.802Z,10.40
2023-04-15T11:38:41.341Z,10.40
2023-04-15T11:40:42.473Z,10.40
2023-04-15T11:42:49.626Z,10.40
2023-04-15T11:44:41.116Z,10.40
2023-04-15T11:46:41.118Z,10.40
2023-04-15T11:48:41.112Z,10.60
2023-04-15T11:50:41.024Z,10.60
2023-04-15T11:52:42.011Z,10.70
2023-04-15T11:54:41.619Z,10.70
2023-04-15T11:56:41.159Z,10.60
2023-04-15T11:58:41.026Z,10.60
2023-04-15T12:00:41.081Z,10.60
2023-04-15T12:02:41.290Z,10.50
2023-04-15T12:04:41.449Z,10.60
2023-04-15T12:06:41.181Z,10.60
2023-04-15T12:08:41.042Z,10.60
2023-04-15T12:10:41.052Z,10.60
2023-04-15T12:12:41.065Z,10.90
2023-04-15T12:16:49.402Z,10.90
2023-04-15T12:18:41.066Z,10.90
2023-04-15T12:20:41.204Z,10.90
2023-04-15T12:22:41.030Z,10.60
2023-04-15T12:24:41.024Z,10.30
2023-04-15T12:26:45.957Z,10.10
2023-04-15T12:28:40.960Z,10.10
2023-04-15T12:31:41.109Z,9.70
2023-04-15T12:33:41.033Z,9.70
2023-04-15T12:35:40.965Z,9.50
2023-04-15T12:36:44.995Z,9.50
2023-04-15T12:39:41.116Z,9.40
2023-04-15T12:41:41.026Z,9.40
2023-04-15T12:43:40.991Z,9.40
2023-04-15T12:45:40.987Z,9.40
2023-04-15T12:47:42.195Z,9.50
2023-04-15T12:49:41.262Z,9.60
2023-04-15T12:51:41.024Z,9.60
2023-04-15T12:53:41.036Z,9.70
2023-04-15T12:55:41.002Z,9.80
2023-04-15T12:57:41.368Z,9.80
2023-04-15T12:59:42.629Z,9.80
2023-04-15T13:01:41.492Z,9.80
2023-04-15T13:03:42.496Z,9.90
2023-04-15T13:05:41.427Z,10.00
2023-04-15T13:07:41.508Z,10.10
2023-04-15T13:09:41.500Z,10.20
2023-04-15T13:11:41.444Z,10.20
2023-04-15T13:13:44.817Z,10.30
2023-04-15T13:15:41.371Z,10.10
2023-04-15T13:17:41.398Z,10.00
2023-04-15T13:19:41.394Z,10.00
2023-04-15T13:21:41.538Z,10.10
2023-04-15T13:23:41.486Z,10.00
2023-04-15T13:25:41.465Z,9.70
2023-04-15T13:27:41.398Z,9.60
2023-04-15T13:29:41.449Z,9.60
2023-04-15T13:31:41.298Z,9.40
2023-04-15T13:33:41.577Z,9.30
2023-04-15T13:35:41.457Z,9.20
2023-04-15T13:37:41.484Z,9.10
2023-04-15T13:39:41.637Z,9.10
2023-04-15T13:41:41.451Z,9.10
2023-04-15T13:43:41.478Z,8.90
2023-04-15T13:45:41.435Z,8.80
2023-04-15T13:47:41.478Z,8.80
2023-04-15T13:49:41.476Z,8.80
2023-04-15T13:51:41.374Z,8.80
2023-04-15T13:53:41.404Z,8.80
2023-04-15T13:55:41.397Z,8.90
2023-04-15T13:57:41.652Z,8.90
2023-04-15T13:59:41.417Z,9.00
2023-04-15T14:01:41.577Z,9.10
2023-04-15T14:03:41.722Z,9.20
2023-04-15T14:05:41.323Z,9.30
2023-04-15T14:07:45.286Z,9.30
2023-04-15T14:09:43.293Z,9.30
2023-04-15T14:11:41.431Z,9.20
2023-04-15T14:13:43.992Z,9.20
2023-04-15T14:15:41.403Z,9.20
2023-04-15T14:17:41.603Z,9.20
2023-04-15T14:19:41.079Z,9.20
2023-04-15T14:21:41.046Z,9.20
2023-04-15T14:23:41.070Z,9.10
2023-04-15T14:25:41.117Z,9.10
2023-04-15T14:27:46.007Z,9.10
2023-04-15T14:29:41.131Z,9.20
2023-04-15T14:31:41.229Z,9.10
2023-04-15T14:33:41.111Z,9.10
2023-04-15T14:35:45.839Z,9.10
2023-04-15T14:37:41.099Z,9.10
2023-04-15T14:39:41.161Z,9.20
2023-04-15T14:41:46.179Z,9.10
2023-04-15T14:43:41.154Z,9.00
2023-04-15T14:45:43.632Z,9.00
2023-04-15T14:47:41.133Z,9.00
2023-04-15T14:49:41.087Z,8.90
2023-04-15T14:51:41.796Z,8.80
2023-04-15T14:53:41.099Z,8.80
2023-04-15T14:55:41.105Z,8.80
2023-04-15T14:57:41.252Z,8.70
2023-04-15T14:59:45.983Z,8.60
2023-04-15T15:01:41.299Z,8.60
2023-04-15T15:03:41.180Z,8.60
2023-04-15T15:05:41.249Z,8.50
2023-04-15T15:07:41.245Z,8.40
2023-04-15T15:09:41.092Z,8.40
2023-04-15T15:11:41.132Z,8.30
2023-04-15T15:13:46.920Z,8.30
2023-04-15T15:15:41.208Z,8.20
2023-04-15T15:17:41.245Z,8.00
2023-04-15T15:19:41.209Z,7.90
2023-04-15T15:21:41.210Z,7.90
2023-04-15T15:23:41.126Z,7.80
2023-04-15T15:25:41.255Z,7.70
2023-04-15T15:27:41.066Z,7.60
2023-04-15T15:29:43.942Z,7.40
2023-04-15T15:31:41.161Z,7.40
2023-04-15T15:33:41.227Z,7.20
2023-04-15T15:35:41.139Z,7.20
2023-04-15T15:37:41.072Z,7.00
2023-04-15T15:39:41.160Z,7.00
2023-04-15T15:41:43.102Z,7.00
2023-04-15T15:43:41.157Z,7.00
2023-04-15T15:45:41.742Z,6.80
2023-04-15T15:47:41.130Z,6.60
2023-04-15T15:49:41.086Z,6.60
2023-04-15T15:51:41.143Z,6.60
2023-04-15T15:53:41.125Z,6.40
2023-04-15T15:55:41.210Z,6.30
2023-04-15T15:57:41.093Z,6.20
2023-04-15T15:59:41.105Z,6.20
2023-04-15T16:01:41.104Z,6.10
2023-04-15T16:03:41.307Z,6.10
2023-04-15T16:05:42.905Z,6.10
2023-04-15T16:07:41.136Z,6.00
2023-04-15T16:09:41.335Z,6.00
2023-04-15T16:11:41.094Z,6.00
2023-04-15T16:13:41.196Z,5.90
2023-04-15T16:16:44.314Z,5.90
2023-04-15T16:18:41.232Z,6.00
2023-04-15T16:20:41.162Z,6.00
2023-04-15T16:22:41.125Z,6.00
2023-04-15T16:24:41.118Z,6.00
2023-04-15T16:26:41.186Z,6.00
2023-04-15T16:28:41.290Z,6.00
2023-04-15T16:30:41.154Z,5.90
2023-04-15T16:32:41.236Z,5.90
2023-04-15T16:34:41.349Z,5.90
2023-04-15T16:36:41.150Z,5.90
2023-04-15T16:38:41.369Z,5.90
2023-04-15T16:40:41.178Z,5.80
2023-04-15T16:42:41.141Z,5.80
2023-04-15T16:44:41.245Z,5.90
2023-04-15T16:46:41.257Z,5.90
2023-04-15T16:48:42.985Z,5.90
2023-04-15T16:49:55.623Z,5.90
2023-04-15T16:52:41.224Z,5.90
2023-04-15T16:54:41.421Z,5.90
2023-04-15T16:56:41.356Z,5.90
2023-04-15T16:58:41.410Z,5.90
2023-04-15T17:00:42.482Z,5.90
2023-04-15T17:02:41.390Z,6.00
2023-04-15T17:04:41.332Z,6.00
2023-04-15T17:06:41.201Z,5.90
2023-04-15T17:08:41.317Z,5.90
2023-04-15T17:11:56.855Z,5.90
2023-04-15T17:13:58.680Z,5.80
2023-04-15T17:16:56.775Z,5.80
2023-04-15T17:18:57.094Z,5.80
2023-04-15T17:20:56.814Z,5.80
2023-04-15T17:22:56.688Z,5.80
2023-04-15T17:24:56.867Z,5.80
2023-04-15T17:26:56.775Z,5.80
2023-04-15T17:28:56.699Z,5.80
2023-04-15T17:30:59.044Z,5.60
2023-04-15T17:32:57.241Z,5.60
2023-04-15T17:34:56.794Z,5.70
2023-04-15T17:36:56.737Z,5.60
2023-04-15T17:38:56.784Z,5.60
2023-04-15T17:40:56.837Z,5.60
2023-04-15T17:42:56.757Z,5.60
2023-04-15T17:44:56.726Z,5.60
2023-04-15T17:46:56.881Z,5.50
2023-04-15T17:48:59.750Z,5.50
2023-04-15T17:50:56.690Z,5.60
2023-04-15T17:53:01.610Z,5.50
2023-04-15T17:54:56.684Z,5.50
2023-04-15T17:56:56.759Z,5.50
2023-04-15T17:58:56.917Z,5.50
2023-04-15T18:00:56.691Z,5.50
2023-04-15T18:02:56.953Z,5.60
2023-04-15T18:04:56.891Z,5.50
2023-04-15T18:06:56.779Z,5.50
2023-04-15T18:08:56.786Z,5.50
2023-04-15T18:10:56.753Z,5.50
2023-04-15T18:12:56.728Z,5.40
2023-04-15T18:14:56.706Z,5.50
2023-04-15T18:16:56.775Z,5.50
2023-04-15T18:18:56.776Z,5.50
2023-04-15T18:20:56.781Z,5.50
2023-04-15T18:22:56.697Z,5.50
2023-04-15T18:24:56.703Z,5.50
2023-04-15T18:26:56.719Z,5.50
2023-04-15T18:28:56.765Z,5.50
2023-04-15T18:30:56.778Z,5.50
2023-04-15T18:32:57.218Z,5.50
2023-04-15T18:34:56.754Z,5.50
2023-04-15T18:36:56.797Z,5.50
2023-04-15T18:38:56.769Z,5.50
2023-04-15T18:40:56.814Z,5.50
2023-04-15T18:42:56.726Z,5.50
2023-04-15T18:44:56.714Z,5.50
2023-04-15T18:46:56.734Z,5.50
2023-04-15T18:49:01.077Z,5.50
2023-04-15T18:50:56.737Z,5.50
2023-04-15T18:53:02.274Z,5.50
2023-04-15T18:54:56.753Z,5.50
2023-04-15T18:56:56.809Z,5.50
2023-04-15T18:59:28.654Z,5.50
2023-04-15T19:00:57.681Z,5.50
2023-04-15T19:02:57.479Z,5.50
2023-04-15T19:04:57.140Z,5.50
2023-04-15T19:06:57.382Z,5.50
2023-04-15T19:08:57.458Z,5.50
2023-04-15T19:10:57.180Z,5.50
2023-04-15T19:13:02.425Z,5.50
2023-04-15T19:14:56.841Z,5.50
2023-04-15T19:16:57.716Z,5.50
2023-04-15T19:18:57.260Z,5.50
2023-04-15T19:20:57.189Z,5.50
2023-04-15T19:22:57.836Z,5.50
2023-04-15T19:24:57.306Z,5.50
2023-04-15T19:26:56.970Z,5.50
2023-04-15T19:28:57.165Z,5.40
2023-04-15T19:30:57.482Z,5.40
2023-04-15T19:32:57.448Z,5.40
2023-04-15T19:35:02.277Z,5.30
2023-04-15T19:36:57.259Z,5.30
2023-04-15T19:38:58.469Z,5.30
2023-04-15T19:40:57.406Z,5.30
2023-04-15T19:42:57.486Z,5.30
2023-04-15T19:45:01.320Z,5.20
2023-04-15T19:46:57.002Z,5.20
2023-04-15T19:48:57.053Z,5.20
2023-04-15T19:50:57.912Z,5.20
2023-04-15T19:52:56.934Z,5.20
2023-04-15T19:54:57.565Z,5.20
2023-04-15T19:56:57.326Z,5.20
2023-04-15T19:58:57.215Z,5.20
2023-04-15T20:00:56.962Z,5.10
2023-04-15T20:02:57.507Z,4.90
2023-04-15T20:04:57.237Z,4.90
2023-04-15T20:06:57.311Z,4.90
2023-04-15T20:08:57.645Z,4.90
2023-04-15T20:11:00.384Z,4.80
2023-04-15T20:12:57.266Z,4.80
2023-04-15T20:14:57.264Z,4.80
2023-04-15T20:16:57.276Z,4.70
2023-04-15T20:18:57.304Z,4.70
2023-04-15T20:20:56.761Z,4.70
2023-04-15T20:22:57.181Z,4.70
2023-04-15T20:24:56.882Z,4.70
2023-04-15T20:26:57.185Z,4.70
2023-04-15T20:28:57.237Z,4.70
2023-04-15T20:31:00.865Z,4.70
2023-04-15T20:32:57.209Z,4.70
2023-04-15T20:34:57.199Z,4.70
2023-04-15T20:36:57.218Z,4.70
2023-04-15T20:39:03.166Z,4.70
2023-04-15T20:40:56.791Z,4.70
2023-04-15T20:43:01.689Z,4.70
2023-04-15T20:46:04.419Z,4.70
2023-04-15T20:47:56.902Z,4.70
2023-04-15T20:49:56.929Z,4.70
2023-04-15T20:51:59.793Z,4.70
2023-04-15T20:53:56.822Z,4.70
2023-04-15T20:55:56.883Z,4.70
2023-04-15T20:57:57.179Z,4.70
2023-04-15T20:59:56.885Z,4.70
2023-04-15T21:01:59.740Z,4.70
2023-04-15T21:03:57.033Z,4.70
2023-04-15T21:05:59.812Z,4.70
2023-04-15T21:07:56.933Z,4.70
2023-04-15T21:09:57.118Z,4.70
2023-04-15T21:12:00.536Z,4.70
2023-04-15T21:13:56.954Z,4.70
2023-04-15T21:15:57.288Z,4.70
2023-04-15T21:17:57.529Z,4.70
2023-04-15T21:19:56.972Z,4.70
2023-04-15T21:21:57.049Z,4.70
2023-04-15T21:23:56.848Z,4.70
2023-04-15T21:25:56.871Z,4.70
2023-04-15T21:27:56.885Z,4.70
2023-04-15T21:29:56.832Z,4.70
2023-04-15T21:31:56.931Z,4.70
2023-04-15T21:33:56.843Z,4.70
2023-04-15T21:35:56.915Z,4.70
2023-04-15T21:37:57.025Z,4.70
2023-04-15T21:39:59.936Z,4.70
2023-04-15T21:41:57.073Z,4.70
2023-04-15T21:43:56.946Z,4.70
2023-04-15T21:46:21.863Z,4.70
2023-04-15T21:48:07.466Z,4.70
2023-04-15T21:49:56.974Z,4.70
2023-04-15T21:51:56.946Z,4.70
2023-04-15T21:54:00.446Z,4.70
2023-04-15T21:55:57.616Z,4.70
2023-04-15T21:57:56.873Z,4.70
2023-04-15T21:59:56.838Z,4.70
2023-04-15T22:01:57.093Z,4.70
2023-04-15T22:03:57.086Z,4.70
2023-04-15T22:05:57.061Z,4.70
2023-04-15T22:07:57.062Z,4.70
2023-04-15T22:09:56.949Z,4.70
2023-04-15T22:11:56.968Z,4.70
2023-04-15T22:13:56.994Z,4.80
2023-04-15T22:15:57.272Z,4.80
2023-04-15T22:17:57.005Z,4.80
2023-04-15T22:19:59.454Z,4.80
2023-04-15T22:21:57.215Z,4.80
2023-04-15T22:24:39.379Z,4.80
2023-04-15T22:25:57.135Z,4.80
2023-04-15T22:27:57.067Z,4.80
2023-04-15T22:29:56.960Z,4.80
2023-04-15T22:31:56.883Z,4.90
2023-04-15T22:33:57.083Z,4.90
2023-04-15T22:35:56.988Z,4.90
2023-04-15T22:37:56.995Z,4.90
2023-04-15T22:39:56.861Z,4.90
2023-04-15T22:41:56.993Z,4.90
2023-04-15T22:43:56.882Z,4.90
2023-04-15T22:45:59.723Z,4.90
2023-04-15T22:47:56.845Z,4.90
2023-04-15T22:49:56.972Z,4.90
2023-04-15T22:51:56.974Z,4.90
2023-04-15T22:53:59.401Z,4.90
2023-04-15T22:55:57.635Z,5.10
2023-04-15T22:57:56.901Z,5.10
2023-04-15T22:59:56.873Z,5.10
2023-04-15T23:01:56.934Z,5.10
2023-04-15T23:04:06.010Z,5.20
2023-04-15T23:05:56.899Z,5.10
2023-04-15T23:07:56.903Z,5.20
2023-04-15T23:10:02.072Z,5.20
2023-04-15T23:11:57.014Z,5.20
2023-04-15T23:13:56.884Z,5.20
2023-04-15T23:15:57.133Z,5.20
2023-04-15T23:17:56.951Z,5.20
2023-04-15T23:20:07.367Z,5.20
2023-04-15T23:22:07.268Z,5.20
2023-04-15T23:24:07.288Z,5.20
2023-04-15T23:26:07.427Z,5.20
2023-04-15T23:28:07.505Z,5.20
2023-04-15T23:30:07.508Z,5.20
2023-04-15T23:32:07.271Z,5.20
2023-04-15T23:34:12.183Z,5.20
2023-04-15T23:36:07.394Z,5.20
2023-04-15T23:38:07.816Z,5.20
2023-04-15T23:40:07.489Z,5.20
2023-04-15T23:42:08.536Z,5.30
2023-04-15T23:44:07.731Z,5.30
2023-04-15T23:46:09.423Z,5.30
2023-04-15T23:48:07.457Z,5.30
2023-04-15T23:50:07.503Z,5.30
2023-04-15T23:52:07.361Z,5.30
2023-04-15T23:54:07.630Z,5.30
2023-04-15T23:56:07.298Z,5.30
2023-04-15T23:58:07.411Z,5.30
